Airfield :







YOU CAN JOIN US ON...

 
LOGIN :

Register | Disclaimer

   EN    FR    IT 

 









Legend :    VFR   Marginal VFR   IFR   Intensive IFR   Very Intensive IFR
Visi :
Ceiling :
>= 8 km
>= 3000ft
5 to 8 km
1000 to 3000 ft
1500m to 5 km
500 to 1000 ft
800 to 1500m
200 to 500 ft
< 800m
< 200 ft
Symbols :   Thunderstorms  Fog  Heavy snow  Heavy precipitations  Wind > 20 kt







- Airport Elevation : 228 ft


KFSO - Franklin County State

CURRENT METAR :
  • 231915Z AUTO 00000KT 10SM BKN065 OVC075 21/11 A3003 RMK AO2 T02110111

EXPIRED METARs :
  • 231855Z AUTO 27004KT 10SM SCT046 OVC075 22/12 A3003 RMK AO2 T02150116
  • 231835Z AUTO 32003KT 10SM SCT048 BKN060 BKN075 22/11 A3002 RMK AO2 T02200112
  • 231816Z AUTO 27005KT 10SM BKN048 BKN060 OVC075 23/12 A3002 RMK AO2 T02250116
  • 231755Z AUTO 32005KT 10SM SCT048 BKN060 22/12 A3002 RMK AO2 T02190117 10228 20171
  • 231736Z AUTO 32005KT 10SM SCT040 SCT050 BKN070 23/12 A3002 RMK AO2 T02270116
  • 231716Z AUTO 33003KT 10SM SCT042 SCT048 SCT060 22/11 A3002 RMK AO2 T02210113
  • 231655Z AUTO 31007KT 290V030 10SM SCT040 23/12 A3002 RMK AO2 T02280119
  • 231636Z AUTO 31003KT 10SM SCT036 23/12 A3002 RMK AO2 T02260119

TAF N/A
No reported NOTAMs for that airfield.



MET'MAP, your aeronautical weather chart ! - Copyright ORBIFLY December 2007 - Disclaimer

ORBIFLY MET'MAP TEAM :

Programming & Development : Alexandra Zaïnal
Concept & Development : Baudouin d'Aumeries
Co-Development & Prog : Marc-Olivier Méhu
Technical & hardware support : Manuel Goepfert

Contact : metmap@orbifly.com




SOURCES & CREDITS :

   NOAA